sensor_id;sensor_type;location;lat;lon;timestamp;P1;durP1;ratioP1;P2;durP2;ratioP2
64641;SDS011;59936;51.490;5.436;2022-10-24T00:02:23;6.18;;;2.45;;
64641;SDS011;59936;51.490;5.436;2022-10-24T00:07:25;7.28;;;2.40;;
64641;SDS011;59936;51.490;5.436;2022-10-24T00:17:30;6.05;;;2.45;;
64641;SDS011;59936;51.490;5.436;2022-10-24T00:22:33;10.57;;;2.65;;
64641;SDS011;59936;51.490;5.436;2022-10-24T00:27:36;10.80;;;2.60;;
64641;SDS011;59936;51.490;5.436;2022-10-24T00:32:37;4.95;;;2.00;;
64641;SDS011;59936;51.490;5.436;2022-10-24T00:37:39;11.40;;;2.63;;
64641;SDS011;59936;51.490;5.436;2022-10-24T00:42:48;12.35;;;2.58;;
64641;SDS011;59936;51.490;5.436;2022-10-24T00:47:50;7.85;;;2.30;;
64641;SDS011;59936;51.490;5.436;2022-10-24T00:57:54;8.03;;;2.70;;
64641;SDS011;59936;51.490;5.436;2022-10-24T01:03:02;9.88;;;2.80;;
64641;SDS011;59936;51.490;5.436;2022-10-24T01:08:07;7.15;;;2.85;;
64641;SDS011;59936;51.490;5.436;2022-10-24T01:13:26;5.75;;;2.75;;
64641;SDS011;59936;51.490;5.436;2022-10-24T01:18:42;10.25;;;3.20;;
64641;SDS011;59936;51.490;5.436;2022-10-24T01:23:56;6.90;;;2.80;;
64641;SDS011;59936;51.490;5.436;2022-10-24T01:29:19;8.05;;;2.65;;
64641;SDS011;59936;51.490;5.436;2022-10-24T01:34:42;8.23;;;2.65;;
64641;SDS011;59936;51.490;5.436;2022-10-24T01:39:49;6.80;;;2.20;;
64641;SDS011;59936;51.490;5.436;2022-10-24T01:44:57;7.35;;;2.42;;
64641;SDS011;59936;51.490;5.436;2022-10-24T01:50:05;7.70;;;2.50;;
64641;SDS011;59936;51.490;5.436;2022-10-24T01:55:11;6.18;;;2.47;;
64641;SDS011;59936;51.490;5.436;2022-10-24T02:00:17;6.95;;;2.55;;
64641;SDS011;59936;51.490;5.436;2022-10-24T02:05:23;7.07;;;2.47;;
64641;SDS011;59936;51.490;5.436;2022-10-24T02:10:35;9.30;;;2.72;;
64641;SDS011;59936;51.490;5.436;2022-10-24T02:15:45;8.63;;;2.67;;
64641;SDS011;59936;51.490;5.436;2022-10-24T02:20:56;6.45;;;2.30;;
64641;SDS011;59936;51.490;5.436;2022-10-24T02:26:12;8.43;;;2.20;;
64641;SDS011;59936;51.490;5.436;2022-10-24T02:31:29;5.78;;;2.15;;
64641;SDS011;59936;51.490;5.436;2022-10-24T02:36:34;4.22;;;2.13;;
64641;SDS011;59936;51.490;5.436;2022-10-24T02:41:39;5.70;;;2.20;;
64641;SDS011;59936;51.490;5.436;2022-10-24T02:46:46;6.82;;;2.30;;
64641;SDS011;59936;51.490;5.436;2022-10-24T02:51:53;5.55;;;1.75;;
64641;SDS011;59936;51.490;5.436;2022-10-24T02:56:57;4.03;;;2.10;;
64641;SDS011;59936;51.490;5.436;2022-10-24T03:02:03;5.32;;;2.10;;
64641;SDS011;59936;51.490;5.436;2022-10-24T03:07:05;7.57;;;2.38;;
64641;SDS011;59936;51.490;5.436;2022-10-24T03:12:08;5.15;;;2.13;;
64641;SDS011;59936;51.490;5.436;2022-10-24T03:17:13;4.20;;;1.95;;
64641;SDS011;59936;51.490;5.436;2022-10-24T03:22:16;3.17;;;1.83;;
64641;SDS011;59936;51.490;5.436;2022-10-24T03:27:18;5.28;;;1.90;;
64641;SDS011;59936;51.490;5.436;2022-10-24T03:32:22;5.13;;;2.13;;
64641;SDS011;59936;51.490;5.436;2022-10-24T03:37:24;8.10;;;2.13;;
64641;SDS011;59936;51.490;5.436;2022-10-24T03:42:27;6.35;;;2.00;;
64641;SDS011;59936;51.490;5.436;2022-10-24T03:47:30;5.30;;;1.90;;
64641;SDS011;59936;51.490;5.436;2022-10-24T03:52:32;7.28;;;2.30;;
64641;SDS011;59936;51.490;5.436;2022-10-24T03:57:34;5.90;;;2.20;;
64641;SDS011;59936;51.490;5.436;2022-10-24T04:07:41;3.15;;;1.75;;
64641;SDS011;59936;51.490;5.436;2022-10-24T04:17:46;3.53;;;2.20;;
64641;SDS011;59936;51.490;5.436;2022-10-24T04:22:48;6.13;;;2.30;;
64641;SDS011;59936;51.490;5.436;2022-10-24T04:27:50;4.53;;;2.83;;
64641;SDS011;59936;51.490;5.436;2022-10-24T04:37:56;6.47;;;1.90;;
64641;SDS011;59936;51.490;5.436;2022-10-24T04:42:58;4.38;;;2.00;;
64641;SDS011;59936;51.490;5.436;2022-10-24T04:53:02;5.15;;;2.17;;
64641;SDS011;59936;51.490;5.436;2022-10-24T04:58:04;5.43;;;1.58;;
64641;SDS011;59936;51.490;5.436;2022-10-24T05:03:08;5.68;;;1.95;;
64641;SDS011;59936;51.490;5.436;2022-10-24T05:08:10;6.70;;;1.80;;
64641;SDS011;59936;51.490;5.436;2022-10-24T05:13:12;7.13;;;2.47;;
64641;SDS011;59936;51.490;5.436;2022-10-24T05:18:15;5.15;;;2.15;;
64641;SDS011;59936;51.490;5.436;2022-10-24T05:23:18;5.00;;;1.85;;
64641;SDS011;59936;51.490;5.436;2022-10-24T05:28:19;10.60;;;2.30;;
64641;SDS011;59936;51.490;5.436;2022-10-24T05:38:25;6.88;;;1.80;;
64641;SDS011;59936;51.490;5.436;2022-10-24T05:43:28;5.25;;;2.08;;
64641;SDS011;59936;51.490;5.436;2022-10-24T05:48:31;6.50;;;2.10;;
64641;SDS011;59936;51.490;5.436;2022-10-24T05:53:34;4.80;;;1.73;;
64641;SDS011;59936;51.490;5.436;2022-10-24T05:58:36;7.93;;;2.13;;
64641;SDS011;59936;51.490;5.436;2022-10-24T06:03:40;4.85;;;1.92;;
64641;SDS011;59936;51.490;5.436;2022-10-24T06:08:42;7.70;;;1.92;;
64641;SDS011;59936;51.490;5.436;2022-10-24T06:13:44;7.43;;;2.17;;
64641;SDS011;59936;51.490;5.436;2022-10-24T06:18:47;8.40;;;1.90;;
64641;SDS011;59936;51.490;5.436;2022-10-24T06:23:49;10.02;;;2.30;;
64641;SDS011;59936;51.490;5.436;2022-10-24T06:33:56;7.50;;;2.08;;
64641;SDS011;59936;51.490;5.436;2022-10-24T06:38:57;9.27;;;2.10;;
64641;SDS011;59936;51.490;5.436;2022-10-24T06:44:00;10.77;;;2.35;;
64641;SDS011;59936;51.490;5.436;2022-10-24T06:49:04;12.48;;;2.45;;
64641;SDS011;59936;51.490;5.436;2022-10-24T06:54:07;3.33;;;1.65;;
64641;SDS011;59936;51.490;5.436;2022-10-24T06:59:09;6.90;;;2.13;;
64641;SDS011;59936;51.490;5.436;2022-10-24T07:04:15;7.03;;;1.90;;
64641;SDS011;59936;51.490;5.436;2022-10-24T07:09:16;6.18;;;2.20;;
64641;SDS011;59936;51.490;5.436;2022-10-24T07:14:19;8.10;;;1.83;;
64641;SDS011;59936;51.490;5.436;2022-10-24T07:19:23;7.13;;;2.20;;
64641;SDS011;59936;51.490;5.436;2022-10-24T07:24:24;7.28;;;2.28;;
64641;SDS011;59936;51.490;5.436;2022-10-24T07:29:27;10.48;;;2.45;;
64641;SDS011;59936;51.490;5.436;2022-10-24T07:34:30;6.35;;;1.92;;
64641;SDS011;59936;51.490;5.436;2022-10-24T07:39:33;6.28;;;2.00;;
64641;SDS011;59936;51.490;5.436;2022-10-24T07:44:36;11.75;;;2.42;;
64641;SDS011;59936;51.490;5.436;2022-10-24T07:49:40;10.15;;;2.55;;
64641;SDS011;59936;51.490;5.436;2022-10-24T07:54:42;10.23;;;2.45;;
64641;SDS011;59936;51.490;5.436;2022-10-24T08:04:46;9.20;;;1.90;;
64641;SDS011;59936;51.490;5.436;2022-10-24T08:09:49;5.43;;;1.85;;
64641;SDS011;59936;51.490;5.436;2022-10-24T08:14:51;10.85;;;2.50;;
64641;SDS011;59936;51.490;5.436;2022-10-24T08:19:56;10.77;;;2.20;;
64641;SDS011;59936;51.490;5.436;2022-10-24T08:24:57;10.25;;;2.20;;
64641;SDS011;59936;51.490;5.436;2022-10-24T08:29:59;8.20;;;2.22;;
64641;SDS011;59936;51.490;5.436;2022-10-24T08:40:05;9.93;;;2.30;;
64641;SDS011;59936;51.490;5.436;2022-10-24T08:45:14;10.95;;;1.83;;
64641;SDS011;59936;51.490;5.436;2022-10-24T08:50:24;11.10;;;2.53;;
64641;SDS011;59936;51.490;5.436;2022-10-24T08:55:33;8.90;;;2.05;;
64641;SDS011;59936;51.490;5.436;2022-10-24T09:00:40;8.48;;;2.08;;
64641;SDS011;59936;51.490;5.436;2022-10-24T09:05:50;7.72;;;2.10;;
64641;SDS011;59936;51.490;5.436;2022-10-24T09:10:56;8.40;;;1.70;;
64641;SDS011;59936;51.490;5.436;2022-10-24T09:16:03;10.13;;;2.13;;
64641;SDS011;59936;51.490;5.436;2022-10-24T09:21:08;10.75;;;2.60;;
64641;SDS011;59936;51.490;5.436;2022-10-24T09:26:15;12.82;;;2.25;;
64641;SDS011;59936;51.490;5.436;2022-10-24T09:36:29;13.35;;;2.95;;
64641;SDS011;59936;51.490;5.436;2022-10-24T09:41:31;9.15;;;2.47;;
64641;SDS011;59936;51.490;5.436;2022-10-24T09:46:35;9.05;;;2.53;;
64641;SDS011;59936;51.490;5.436;2022-10-24T09:51:46;12.45;;;2.28;;
64641;SDS011;59936;51.490;5.436;2022-10-24T09:57:02;10.90;;;2.53;;
64641;SDS011;59936;51.490;5.436;2022-10-24T10:07:36;7.93;;;2.40;;
64641;SDS011;59936;51.490;5.436;2022-10-24T10:12:40;11.80;;;2.90;;
64641;SDS011;59936;51.490;5.436;2022-10-24T10:17:47;13.07;;;2.85;;
64641;SDS011;59936;51.490;5.436;2022-10-24T10:22:53;11.93;;;2.95;;
64641;SDS011;59936;51.490;5.436;2022-10-24T10:27:56;8.60;;;2.05;;
64641;SDS011;59936;51.490;5.436;2022-10-24T10:33:06;10.80;;;2.50;;
64641;SDS011;59936;51.490;5.436;2022-10-24T10:43:54;9.00;;;2.42;;
64641;SDS011;59936;51.490;5.436;2022-10-24T10:49:15;9.70;;;2.13;;
64641;SDS011;59936;51.490;5.436;2022-10-24T10:54:35;9.90;;;2.45;;
64641;SDS011;59936;51.490;5.436;2022-10-24T11:00:10;13.57;;;2.90;;
64641;SDS011;59936;51.490;5.436;2022-10-24T11:05:30;8.65;;;2.28;;
64641;SDS011;59936;51.490;5.436;2022-10-24T11:10:47;9.50;;;2.25;;
64641;SDS011;59936;51.490;5.436;2022-10-24T11:15:54;6.70;;;1.98;;
64641;SDS011;59936;51.490;5.436;2022-10-24T11:21:04;10.98;;;2.40;;
64641;SDS011;59936;51.490;5.436;2022-10-24T11:26:10;7.85;;;2.15;;
64641;SDS011;59936;51.490;5.436;2022-10-24T11:31:22;9.02;;;2.40;;
64641;SDS011;59936;51.490;5.436;2022-10-24T11:36:34;7.68;;;2.38;;
64641;SDS011;59936;51.490;5.436;2022-10-24T11:41:48;6.03;;;1.95;;
64641;SDS011;59936;51.490;5.436;2022-10-24T11:46:59;8.07;;;2.35;;
64641;SDS011;59936;51.490;5.436;2022-10-24T11:52:15;8.02;;;2.50;;
64641;SDS011;59936;51.490;5.436;2022-10-24T11:57:26;6.35;;;2.17;;
64641;SDS011;59936;51.490;5.436;2022-10-24T12:02:45;5.80;;;1.98;;
64641;SDS011;59936;51.490;5.436;2022-10-24T12:08:33;11.88;;;2.20;;
64641;SDS011;59936;51.490;5.436;2022-10-24T12:14:14;5.97;;;2.15;;
64641;SDS011;59936;51.490;5.436;2022-10-24T12:19:33;8.93;;;2.33;;
64641;SDS011;59936;51.490;5.436;2022-10-24T12:24:39;9.85;;;2.65;;
64641;SDS011;59936;51.490;5.436;2022-10-24T12:29:43;12.52;;;2.50;;
64641;SDS011;59936;51.490;5.436;2022-10-24T12:34:55;8.80;;;2.78;;
64641;SDS011;59936;51.490;5.436;2022-10-24T12:39:58;8.43;;;2.10;;
64641;SDS011;59936;51.490;5.436;2022-10-24T12:45:41;6.13;;;2.10;;
64641;SDS011;59936;51.490;5.436;2022-10-24T12:56:27;8.18;;;1.95;;
64641;SDS011;59936;51.490;5.436;2022-10-24T13:01:33;5.10;;;1.73;;
64641;SDS011;59936;51.490;5.436;2022-10-24T13:06:40;6.53;;;1.95;;
64641;SDS011;59936;51.490;5.436;2022-10-24T13:12:06;7.63;;;2.20;;
64641;SDS011;59936;51.490;5.436;2022-10-24T13:17:29;8.68;;;2.40;;
64641;SDS011;59936;51.490;5.436;2022-10-24T13:22:45;9.40;;;2.63;;
64641;SDS011;59936;51.490;5.436;2022-10-24T13:33:40;8.43;;;2.22;;
64641;SDS011;59936;51.490;5.436;2022-10-24T13:38:45;9.75;;;2.28;;
64641;SDS011;59936;51.490;5.436;2022-10-24T13:43:54;11.55;;;2.50;;
64641;SDS011;59936;51.490;5.436;2022-10-24T13:49:04;13.35;;;2.40;;
64641;SDS011;59936;51.490;5.436;2022-10-24T13:54:09;8.35;;;1.90;;
64641;SDS011;59936;51.490;5.436;2022-10-24T13:59:26;6.10;;;2.10;;
64641;SDS011;59936;51.490;5.436;2022-10-24T14:04:31;7.00;;;1.50;;
64641;SDS011;59936;51.490;5.436;2022-10-24T14:09:38;9.48;;;1.55;;
64641;SDS011;59936;51.490;5.436;2022-10-24T14:14:45;6.00;;;1.63;;
64641;SDS011;59936;51.490;5.436;2022-10-24T14:19:53;4.78;;;1.58;;
64641;SDS011;59936;51.490;5.436;2022-10-24T14:24:57;6.53;;;1.50;;
64641;SDS011;59936;51.490;5.436;2022-10-24T14:30:00;5.97;;;1.80;;
64641;SDS011;59936;51.490;5.436;2022-10-24T14:35:06;6.15;;;1.85;;
64641;SDS011;59936;51.490;5.436;2022-10-24T14:40:15;4.38;;;1.67;;
64641;SDS011;59936;51.490;5.436;2022-10-24T14:45:20;5.90;;;1.60;;
64641;SDS011;59936;51.490;5.436;2022-10-24T14:50:37;6.70;;;1.85;;
64641;SDS011;59936;51.490;5.436;2022-10-24T14:55:47;4.30;;;1.50;;
64641;SDS011;59936;51.490;5.436;2022-10-24T15:00:53;2.85;;;1.35;;
64641;SDS011;59936;51.490;5.436;2022-10-24T15:06:08;4.70;;;1.30;;
64641;SDS011;59936;51.490;5.436;2022-10-24T15:11:13;4.82;;;1.60;;
64641;SDS011;59936;51.490;5.436;2022-10-24T15:16:27;4.53;;;1.45;;
64641;SDS011;59936;51.490;5.436;2022-10-24T15:21:40;4.05;;;1.30;;
64641;SDS011;59936;51.490;5.436;2022-10-24T15:26:46;3.85;;;1.50;;
64641;SDS011;59936;51.490;5.436;2022-10-24T15:36:52;5.88;;;1.52;;
64641;SDS011;59936;51.490;5.436;2022-10-24T15:41:57;8.07;;;1.30;;
64641;SDS011;59936;51.490;5.436;2022-10-24T15:46:59;3.67;;;1.60;;
64641;SDS011;59936;51.490;5.436;2022-10-24T15:52:11;4.90;;;1.67;;
64641;SDS011;59936;51.490;5.436;2022-10-24T15:57:16;6.13;;;1.63;;
64641;SDS011;59936;51.490;5.436;2022-10-24T16:02:20;4.50;;;1.63;;
64641;SDS011;59936;51.490;5.436;2022-10-24T16:07:26;7.80;;;1.67;;
64641;SDS011;59936;51.490;5.436;2022-10-24T16:12:28;6.00;;;1.75;;
64641;SDS011;59936;51.490;5.436;2022-10-24T16:22:35;9.40;;;2.60;;
64641;SDS011;59936;51.490;5.436;2022-10-24T16:27:37;3.33;;;1.70;;
64641;SDS011;59936;51.490;5.436;2022-10-24T16:32:40;7.03;;;1.98;;
64641;SDS011;59936;51.490;5.436;2022-10-24T16:37:44;4.50;;;1.75;;
64641;SDS011;59936;51.490;5.436;2022-10-24T16:42:47;4.18;;;1.67;;
64641;SDS011;59936;51.490;5.436;2022-10-24T16:47:50;6.43;;;1.40;;
64641;SDS011;59936;51.490;5.436;2022-10-24T16:52:54;3.13;;;1.52;;
64641;SDS011;59936;51.490;5.436;2022-10-24T16:58:03;6.03;;;1.70;;
64641;SDS011;59936;51.490;5.436;2022-10-24T17:03:04;3.42;;;1.40;;
64641;SDS011;59936;51.490;5.436;2022-10-24T17:08:07;6.32;;;1.60;;
64641;SDS011;59936;51.490;5.436;2022-10-24T17:13:10;4.80;;;1.52;;
64641;SDS011;59936;51.490;5.436;2022-10-24T17:18:12;6.93;;;1.65;;
64641;SDS011;59936;51.490;5.436;2022-10-24T17:23:17;4.05;;;1.48;;
64641;SDS011;59936;51.490;5.436;2022-10-24T17:28:21;6.13;;;1.80;;
64641;SDS011;59936;51.490;5.436;2022-10-24T17:38:32;8.93;;;3.05;;
64641;SDS011;59936;51.490;5.436;2022-10-24T17:43:43;5.10;;;1.80;;
64641;SDS011;59936;51.490;5.436;2022-10-24T17:48:45;5.22;;;1.95;;
64641;SDS011;59936;51.490;5.436;2022-10-24T17:53:50;7.65;;;2.30;;
64641;SDS011;59936;51.490;5.436;2022-10-24T17:58:52;7.45;;;2.13;;
64641;SDS011;59936;51.490;5.436;2022-10-24T18:03:54;6.80;;;2.47;;
64641;SDS011;59936;51.490;5.436;2022-10-24T18:08:57;7.80;;;2.75;;
64641;SDS011;59936;51.490;5.436;2022-10-24T18:13:59;6.85;;;2.83;;
64641;SDS011;59936;51.490;5.436;2022-10-24T18:19:00;11.40;;;2.75;;
64641;SDS011;59936;51.490;5.436;2022-10-24T18:24:06;6.00;;;2.80;;
64641;SDS011;59936;51.490;5.436;2022-10-24T18:29:08;11.65;;;3.28;;
64641;SDS011;59936;51.490;5.436;2022-10-24T18:34:11;12.45;;;3.47;;
64641;SDS011;59936;51.490;5.436;2022-10-24T18:39:14;12.18;;;2.92;;
64641;SDS011;59936;51.490;5.436;2022-10-24T18:44:22;7.00;;;2.67;;
64641;SDS011;59936;51.490;5.436;2022-10-24T18:49:28;10.82;;;3.20;;
64641;SDS011;59936;51.490;5.436;2022-10-24T18:54:35;7.78;;;2.70;;
64641;SDS011;59936;51.490;5.436;2022-10-24T18:59:42;8.27;;;2.72;;
64641;SDS011;59936;51.490;5.436;2022-10-24T19:04:45;12.20;;;3.22;;
64641;SDS011;59936;51.490;5.436;2022-10-24T19:09:56;13.27;;;3.10;;
64641;SDS011;59936;51.490;5.436;2022-10-24T19:14:59;9.55;;;2.80;;
64641;SDS011;59936;51.490;5.436;2022-10-24T19:20:01;11.93;;;3.65;;
64641;SDS011;59936;51.490;5.436;2022-10-24T19:25:05;9.13;;;3.22;;
64641;SDS011;59936;51.490;5.436;2022-10-24T19:30:08;9.95;;;3.67;;
64641;SDS011;59936;51.490;5.436;2022-10-24T19:35:12;12.18;;;3.50;;
64641;SDS011;59936;51.490;5.436;2022-10-24T19:40:16;10.18;;;3.55;;
64641;SDS011;59936;51.490;5.436;2022-10-24T19:45:18;11.63;;;3.40;;
64641;SDS011;59936;51.490;5.436;2022-10-24T19:50:20;12.02;;;3.00;;
64641;SDS011;59936;51.490;5.436;2022-10-24T19:55:23;10.48;;;2.60;;
64641;SDS011;59936;51.490;5.436;2022-10-24T20:00:25;6.07;;;2.70;;
64641;SDS011;59936;51.490;5.436;2022-10-24T20:05:26;6.85;;;2.30;;
64641;SDS011;59936;51.490;5.436;2022-10-24T20:10:30;4.82;;;2.00;;
64641;SDS011;59936;51.490;5.436;2022-10-24T20:15:32;7.47;;;2.03;;
64641;SDS011;59936;51.490;5.436;2022-10-24T20:20:34;6.35;;;2.35;;
64641;SDS011;59936;51.490;5.436;2022-10-24T20:25:38;4.90;;;2.20;;
64641;SDS011;59936;51.490;5.436;2022-10-24T20:30:42;4.18;;;2.10;;
64641;SDS011;59936;51.490;5.436;2022-10-24T20:35:46;7.47;;;2.40;;
64641;SDS011;59936;51.490;5.436;2022-10-24T20:40:49;4.57;;;1.70;;
64641;SDS011;59936;51.490;5.436;2022-10-24T20:45:51;4.32;;;1.80;;
64641;SDS011;59936;51.490;5.436;2022-10-24T20:51:01;4.05;;;2.10;;
64641;SDS011;59936;51.490;5.436;2022-10-24T20:56:07;4.63;;;2.13;;
64641;SDS011;59936;51.490;5.436;2022-10-24T21:01:12;6.63;;;2.00;;
64641;SDS011;59936;51.490;5.436;2022-10-24T21:06:17;5.53;;;2.28;;
64641;SDS011;59936;51.490;5.436;2022-10-24T21:11:25;6.20;;;2.10;;
64641;SDS011;59936;51.490;5.436;2022-10-24T21:16:29;9.23;;;2.47;;
64641;SDS011;59936;51.490;5.436;2022-10-24T21:21:31;7.68;;;2.42;;
64641;SDS011;59936;51.490;5.436;2022-10-24T21:26:37;6.95;;;2.33;;
64641;SDS011;59936;51.490;5.436;2022-10-24T21:31:38;5.68;;;2.25;;
64641;SDS011;59936;51.490;5.436;2022-10-24T21:36:40;7.63;;;2.55;;
64641;SDS011;59936;51.490;5.436;2022-10-24T21:41:43;9.45;;;2.67;;
64641;SDS011;59936;51.490;5.436;2022-10-24T21:46:45;4.28;;;2.17;;
64641;SDS011;59936;51.490;5.436;2022-10-24T21:51:47;5.50;;;2.70;;
64641;SDS011;59936;51.490;5.436;2022-10-24T21:56:51;4.50;;;2.28;;
64641;SDS011;59936;51.490;5.436;2022-10-24T22:01:53;6.47;;;2.53;;
64641;SDS011;59936;51.490;5.436;2022-10-24T22:06:56;4.30;;;2.20;;
64641;SDS011;59936;51.490;5.436;2022-10-24T22:11:59;9.30;;;2.35;;
64641;SDS011;59936;51.490;5.436;2022-10-24T22:17:01;6.72;;;2.67;;
64641;SDS011;59936;51.490;5.436;2022-10-24T22:22:03;6.05;;;3.08;;
64641;SDS011;59936;51.490;5.436;2022-10-24T22:27:06;11.80;;;2.88;;
64641;SDS011;59936;51.490;5.436;2022-10-24T22:32:08;8.05;;;2.63;;
64641;SDS011;59936;51.490;5.436;2022-10-24T22:37:19;10.63;;;2.78;;
64641;SDS011;59936;51.490;5.436;2022-10-24T22:42:29;8.95;;;2.90;;
64641;SDS011;59936;51.490;5.436;2022-10-24T22:47:39;8.13;;;2.67;;
64641;SDS011;59936;51.490;5.436;2022-10-24T22:53:00;7.10;;;2.33;;
64641;SDS011;59936;51.490;5.436;2022-10-24T22:58:03;8.75;;;2.90;;
64641;SDS011;59936;51.490;5.436;2022-10-24T23:03:10;12.77;;;2.70;;
64641;SDS011;59936;51.490;5.436;2022-10-24T23:08:29;11.95;;;2.95;;
64641;SDS011;59936;51.490;5.436;2022-10-24T23:13:39;8.40;;;2.95;;
64641;SDS011;59936;51.490;5.436;2022-10-24T23:18:43;6.05;;;2.42;;
64641;SDS011;59936;51.490;5.436;2022-10-24T23:23:46;6.70;;;2.33;;
64641;SDS011;59936;51.490;5.436;2022-10-24T23:28:52;11.57;;;2.70;;
64641;SDS011;59936;51.490;5.436;2022-10-24T23:34:03;12.43;;;3.10;;
64641;SDS011;59936;51.490;5.436;2022-10-24T23:39:07;9.23;;;2.78;;
64641;SDS011;59936;51.490;5.436;2022-10-24T23:44:13;6.60;;;2.42;;
64641;SDS011;59936;51.490;5.436;2022-10-24T23:49:17;15.35;;;2.47;;
64641;SDS011;59936;51.490;5.436;2022-10-24T23:54:30;9.73;;;2.47;;
64641;SDS011;59936;51.490;5.436;2022-10-24T23:59:36;13.77;;;2.50;;
